Tropical Cyclones
[Index]
Main Index Home Page Stock Weather Photos Extreme Storms Discussion Storm News and Storm Chasing Reports Tropical Cyclones / Hurricanes / Typhoons Weather Data and Links Wild Fires / Bushfires Weather Observation Techniques Weather Picture Catalogue Tornado Pictures and Reports Stock Video Footage and DVDs for sale
Season 1951-1952 Tropical Cyclone 195201 Track Map
Season 1951-1952 Summaries: [BoM-AU] [JTWC-AU] [JTWC-SIO] [JTWC-SPAC] [JTWC-SH]
<<- Previous TC | JTWC 1951-1952 Season | Next TC ->>

click for intensity scale information  Lat/long Grid: Show Hide

 Date Labels: Show Hide

Joint Typhoon Warning Centre Cyclone Data

Name: 195201
Number: 156 / 5201

17 Nov 1951 06:00 UTC to 30 Nov 1951 06:00 UTC

    date/time    lat    long     hPa   cat  kts
1951-11-17 06    5.7    73.2                              
1951-11-17 12    5.7    72.8                              
1951-11-17 18    5.8    72.5                              
1951-11-18 00    5.8    72.2                              
1951-11-18 06    5.9    71.9                              
1951-11-18 12    5.9    71.6                              
1951-11-18 18    6.0    71.3                              
1951-11-19 00    6.1    70.9                              
1951-11-19 06    6.2    70.3                              
1951-11-19 12    6.2    69.7                              
1951-11-19 18    6.3    69.0                              
1951-11-20 00    6.3    68.5                              
1951-11-20 06    6.4    68.0                              
1951-11-20 12    6.5    67.3                              
1951-11-20 18    6.6    66.6                              
1951-11-21 00    6.6    65.9                              
1951-11-21 06    6.7    65.1                              
1951-11-21 12    6.7    64.1                              
1951-11-21 18    6.8    63.0                              
1951-11-22 00    6.8    62.0                              
1951-11-22 06    6.9    61.0                              
1951-11-22 12    6.9    60.4                              
1951-11-22 18    7.0    59.8                              
1951-11-23 00    7.1    59.1                              
1951-11-23 06    7.2    58.4                              
1951-11-23 12    7.2    57.6                              
1951-11-23 18    7.3    56.8                              
1951-11-24 00    7.4    56.0                              
1951-11-24 06    7.6    55.1                              
1951-11-24 12    7.8    54.1                              
1951-11-24 18    8.0    53.0                              
1951-11-25 00    8.2    52.2                              
1951-11-25 06    8.3    51.3                              
1951-11-25 12    8.6    50.2                              
1951-11-25 18    9.2    49.0                              
1951-11-26 00   10.0    47.9                              
1951-11-26 06   10.8    47.0                              
1951-11-26 12   11.3    46.3                              
1951-11-26 18   11.8    45.6                              
1951-11-27 00   12.5    44.9                              
1951-11-27 06   13.1    44.2                              
1951-11-27 12   13.6    43.7                              
1951-11-27 18   14.0    43.2                              
1951-11-28 00   14.3    42.7                              
1951-11-28 06   14.7    42.2                              
1951-11-28 12   15.1    41.7                              
1951-11-28 18   15.6    41.2                              
1951-11-29 00   16.1    40.5                              
1951-11-29 06   16.7    39.8                              
1951-11-29 12   17.2    39.5                              
1951-11-29 18   17.8    39.3                              
1951-11-30 00   18.4    39.1                              
1951-11-30 06   19.0    38.9                              
Winds are 1-min average.

Tropical cyclone tracks developed by Michael Bath using data from the Joint Typhoon Warning Centre Best Tracks and Google Maps.


[Australian Severe Weather index] [Copyright Notice] [Email Contacts] [Search This Site] [Privacy Policy]
Document: tropical_cyclone_195201.htm Updated: 18 September 2016